createdAt,value
2022-10-08T00:06:24.574Z,63.22
2022-10-08T00:16:29.732Z,62.34
2022-10-08T00:26:42.638Z,62.49
2022-10-08T00:36:47.482Z,62.01
2022-10-08T00:46:52.205Z,62.53
2022-10-08T00:56:56.316Z,62.51
2022-10-08T01:07:12.433Z,62.93
2022-10-08T01:17:24.251Z,62.92
2022-10-08T01:27:33.844Z,63.12
2022-10-08T01:37:40.273Z,63.05
2022-10-08T01:47:47.045Z,63.63
2022-10-08T01:57:51.566Z,63.55
2022-10-08T02:07:56.463Z,63.00
2022-10-08T02:18:08.050Z,62.97
2022-10-08T02:28:19.503Z,62.60
2022-10-08T02:38:27.519Z,63.55
2022-10-08T02:48:34.170Z,63.92
2022-10-08T02:58:37.186Z,64.67
2022-10-08T03:08:44.512Z,65.00
2022-10-08T03:18:48.019Z,65.17
2022-10-08T03:28:53.219Z,65.44
2022-10-08T03:38:56.359Z,66.36
2022-10-08T03:49:00.638Z,66.09
2022-10-08T03:59:03.756Z,66.38
2022-10-08T04:09:08.012Z,66.77
2022-10-08T04:19:12.167Z,66.80
2022-10-08T04:29:16.582Z,67.36
2022-10-08T04:39:19.350Z,67.55
2022-10-08T04:49:24.769Z,67.54
2022-10-08T04:59:27.621Z,67.89
2022-10-08T05:09:31.871Z,68.23
2022-10-08T05:19:35.533Z,68.34
2022-10-08T05:29:39.805Z,67.86
2022-10-08T05:39:42.849Z,69.13
2022-10-08T05:49:46.872Z,70.24
2022-10-08T05:59:49.761Z,72.31
2022-10-08T06:09:54.072Z,72.15
2022-10-08T06:19:57.038Z,73.81
2022-10-08T06:30:01.291Z,74.79
2022-10-08T06:40:04.553Z,76.55
2022-10-08T06:50:09.266Z,77.49
2022-10-08T07:00:12.991Z,77.98
2022-10-08T07:10:18.591Z,78.37
2022-10-08T07:20:21.797Z,78.97
2022-10-08T07:30:27.949Z,79.02
2022-10-08T07:40:31.047Z,76.32
2022-10-08T07:50:35.231Z,78.14
2022-10-08T08:00:39.994Z,77.75
2022-10-08T08:10:44.522Z,78.00
2022-10-08T08:20:47.412Z,78.42
2022-10-08T08:30:51.682Z,78.17
2022-10-08T08:40:57.333Z,78.04
2022-10-08T08:51:04.403Z,78.06
2022-10-08T09:01:18.499Z,75.58
2022-10-08T09:11:25.102Z,75.58
2022-10-08T09:21:31.305Z,73.91
2022-10-08T09:31:42.515Z,70.13
2022-10-08T09:41:46.169Z,68.65
2022-10-08T09:51:51.885Z,65.33
2022-10-08T10:01:55.110Z,63.97
2022-10-08T10:12:04.927Z,61.13
2022-10-08T10:22:15.094Z,61.78
2022-10-08T10:32:23.902Z,63.24
2022-10-08T10:42:34.174Z,63.23
2022-10-08T10:52:52.333Z,61.60
2022-10-08T11:03:00.039Z,62.72
2022-10-08T11:13:17.962Z,59.14
2022-10-08T11:23:39.530Z,57.97
2022-10-08T11:33:45.783Z,59.44
2022-10-08T11:43:55.739Z,57.96
2022-10-08T11:54:08.135Z,55.31
2022-10-08T12:04:20.936Z,55.34
2022-10-08T12:14:49.457Z,55.08
2022-10-08T12:24:55.844Z,54.19
2022-10-08T12:35:04.788Z,49.95
2022-10-08T12:45:14.379Z,49.96
2022-10-08T12:55:22.586Z,50.60
2022-10-08T13:05:27.752Z,50.57
2022-10-08T13:15:33.564Z,52.80
2022-10-08T13:25:38.686Z,52.08
2022-10-08T13:35:44.158Z,49.61
2022-10-08T13:45:47.183Z,48.23
2022-10-08T13:55:51.754Z,47.28
2022-10-08T14:05:54.744Z,46.69
2022-10-08T14:15:59.038Z,44.45
2022-10-08T14:26:01.928Z,45.19
2022-10-08T14:36:08.657Z,47.54
2022-10-08T14:46:11.593Z,49.67
2022-10-08T14:56:15.911Z,48.60
2022-10-08T15:06:18.875Z,47.75
2022-10-08T15:16:23.351Z,47.27
2022-10-08T15:26:27.038Z,46.71
2022-10-08T15:36:33.136Z,46.11
2022-10-08T15:46:36.231Z,44.93
2022-10-08T15:56:40.699Z,45.17
2022-10-08T16:06:45.294Z,45.68
2022-10-08T16:16:50.178Z,46.82
2022-10-08T16:26:53.506Z,48.01
2022-10-08T16:36:59.669Z,48.77
2022-10-08T16:47:02.664Z,51.19
2022-10-08T16:57:06.999Z,51.73
2022-10-08T17:07:09.803Z,51.69
2022-10-08T17:17:14.796Z,52.24
2022-10-08T17:27:17.776Z,51.90
2022-10-08T17:37:21.931Z,51.95
2022-10-08T17:47:29.047Z,51.88
2022-10-08T17:57:33.594Z,51.99
2022-10-08T18:07:36.521Z,52.36
2022-10-08T18:17:40.911Z,51.94
2022-10-08T18:27:43.799Z,53.78
2022-10-08T18:37:48.630Z,52.68
2022-10-08T18:47:51.553Z,53.87
2022-10-08T18:57:56.139Z,53.46
2022-10-08T19:07:59.103Z,54.85
2022-10-08T19:18:03.632Z,57.61
2022-10-08T19:28:06.597Z,56.09
2022-10-08T19:38:11.123Z,56.60
2022-10-08T19:48:14.110Z,56.29
2022-10-08T19:58:18.592Z,56.31
2022-10-08T20:08:21.613Z,56.30
2022-10-08T20:18:25.730Z,55.98
2022-10-08T20:28:28.734Z,57.64
2022-10-08T20:38:33.144Z,58.12
2022-10-08T20:48:37.604Z,58.82
2022-10-08T20:58:42.264Z,59.75
2022-10-08T21:08:47.412Z,60.94
2022-10-08T21:18:53.069Z,61.16
2022-10-08T21:28:57.837Z,62.06
2022-10-08T21:39:03.853Z,62.07
2022-10-08T21:49:09.854Z,62.27
2022-10-08T21:59:16.482Z,62.69
2022-10-08T22:09:22.293Z,61.84
2022-10-08T22:19:26.670Z,62.80
2022-10-08T22:29:29.431Z,63.28
2022-10-08T22:39:33.569Z,63.50
2022-10-08T22:49:36.604Z,63.11
2022-10-08T22:59:41.050Z,62.42
2022-10-08T23:09:43.837Z,62.60
2022-10-08T23:19:48.094Z,62.18
2022-10-08T23:29:51.057Z,65.07
2022-10-08T23:39:57.918Z,64.58
2022-10-08T23:50:01.122Z,64.13
